sensor_id;sensor_type;location;lat;lon;timestamp;P1;durP1;ratioP1;P2;durP2;ratioP2
22131;SDS011;11232;51.748;19.390;2023-03-01T00:00:37;134.40;;;52.80;;
22131;SDS011;11232;51.748;19.390;2023-03-01T00:03:03;139.87;;;52.27;;
22131;SDS011;11232;51.748;19.390;2023-03-01T00:05:29;147.33;;;54.43;;
22131;SDS011;11232;51.748;19.390;2023-03-01T00:07:55;148.07;;;57.83;;
22131;SDS011;11232;51.748;19.390;2023-03-01T00:10:21;151.10;;;56.57;;
22131;SDS011;11232;51.748;19.390;2023-03-01T00:12:47;157.23;;;56.90;;
22131;SDS011;11232;51.748;19.390;2023-03-01T00:15:13;170.53;;;63.93;;
22131;SDS011;11232;51.748;19.390;2023-03-01T00:17:39;161.37;;;62.87;;
22131;SDS011;11232;51.748;19.390;2023-03-01T00:20:05;171.53;;;64.13;;
22131;SDS011;11232;51.748;19.390;2023-03-01T00:22:35;176.13;;;65.13;;
22131;SDS011;11232;51.748;19.390;2023-03-01T00:25:01;176.57;;;64.87;;
22131;SDS011;11232;51.748;19.390;2023-03-01T00:27:27;163.90;;;63.30;;
22131;SDS011;11232;51.748;19.390;2023-03-01T00:29:53;176.13;;;66.00;;
22131;SDS011;11232;51.748;19.390;2023-03-01T00:32:19;157.30;;;62.20;;
22131;SDS011;11232;51.748;19.390;2023-03-01T00:34:45;151.67;;;57.73;;
22131;SDS011;11232;51.748;19.390;2023-03-01T00:37:19;161.53;;;62.53;;
22131;SDS011;11232;51.748;19.390;2023-03-01T00:39:45;158.00;;;61.50;;
22131;SDS011;11232;51.748;19.390;2023-03-01T00:42:11;166.53;;;62.43;;
22131;SDS011;11232;51.748;19.390;2023-03-01T00:44:37;171.93;;;64.50;;
22131;SDS011;11232;51.748;19.390;2023-03-01T00:47:03;175.70;;;65.13;;
22131;SDS011;11232;51.748;19.390;2023-03-01T00:49:29;179.63;;;65.77;;
22131;SDS011;11232;51.748;19.390;2023-03-01T00:51:55;171.80;;;63.57;;
22131;SDS011;11232;51.748;19.390;2023-03-01T00:54:21;177.60;;;65.47;;
22131;SDS011;11232;51.748;19.390;2023-03-01T00:56:47;178.77;;;65.17;;
22131;SDS011;11232;51.748;19.390;2023-03-01T00:59:13;175.27;;;66.90;;
22131;SDS011;11232;51.748;19.390;2023-03-01T01:01:39;171.33;;;64.20;;
22131;SDS011;11232;51.748;19.390;2023-03-01T01:04:06;169.70;;;63.77;;
22131;SDS011;11232;51.748;19.390;2023-03-01T01:06:34;180.60;;;64.67;;
22131;SDS011;11232;51.748;19.390;2023-03-01T01:09:00;159.90;;;59.73;;
22131;SDS011;11232;51.748;19.390;2023-03-01T01:11:27;163.03;;;62.40;;
22131;SDS011;11232;51.748;19.390;2023-03-01T01:13:54;181.17;;;62.87;;
22131;SDS011;11232;51.748;19.390;2023-03-01T01:16:20;175.97;;;65.07;;
22131;SDS011;11232;51.748;19.390;2023-03-01T01:18:47;173.20;;;62.00;;
22131;SDS011;11232;51.748;19.390;2023-03-01T01:21:14;159.93;;;59.97;;
22131;SDS011;11232;51.748;19.390;2023-03-01T01:23:40;162.70;;;59.70;;
22131;SDS011;11232;51.748;19.390;2023-03-01T01:26:07;174.40;;;61.50;;
22131;SDS011;11232;51.748;19.390;2023-03-01T01:28:33;172.37;;;60.90;;
22131;SDS011;11232;51.748;19.390;2023-03-01T01:30:59;154.20;;;58.53;;
22131;SDS011;11232;51.748;19.390;2023-03-01T01:33:25;153.93;;;58.23;;
22131;SDS011;11232;51.748;19.390;2023-03-01T01:35:51;146.27;;;55.57;;
22131;SDS011;11232;51.748;19.390;2023-03-01T01:38:18;166.07;;;58.77;;
22131;SDS011;11232;51.748;19.390;2023-03-01T01:40:44;157.63;;;56.90;;
22131;SDS011;11232;51.748;19.390;2023-03-01T01:43:24;148.23;;;54.77;;
22131;SDS011;11232;51.748;19.390;2023-03-01T01:45:50;157.17;;;56.90;;
22131;SDS011;11232;51.748;19.390;2023-03-01T01:48:18;140.90;;;52.90;;
22131;SDS011;11232;51.748;19.390;2023-03-01T01:50:45;151.43;;;51.47;;
22131;SDS011;11232;51.748;19.390;2023-03-01T01:53:15;140.93;;;51.27;;
22131;SDS011;11232;51.748;19.390;2023-03-01T01:55:47;134.27;;;51.63;;
22131;SDS011;11232;51.748;19.390;2023-03-01T01:58:15;141.60;;;49.47;;
22131;SDS011;11232;51.748;19.390;2023-03-01T02:00:43;117.83;;;46.33;;
22131;SDS011;11232;51.748;19.390;2023-03-01T02:03:11;113.27;;;42.43;;
22131;SDS011;11232;51.748;19.390;2023-03-01T02:05:46;111.87;;;44.03;;
22131;SDS011;11232;51.748;19.390;2023-03-01T02:08:13;114.53;;;44.43;;
22131;SDS011;11232;51.748;19.390;2023-03-01T02:10:41;127.53;;;46.43;;
22131;SDS011;11232;51.748;19.390;2023-03-01T02:13:08;118.27;;;44.10;;
22131;SDS011;11232;51.748;19.390;2023-03-01T02:15:35;104.17;;;40.10;;
22131;SDS011;11232;51.748;19.390;2023-03-01T02:18:02;107.93;;;40.47;;
22131;SDS011;11232;51.748;19.390;2023-03-01T02:23:03;92.50;;;37.00;;
22131;SDS011;11232;51.748;19.390;2023-03-01T02:25:36;98.63;;;36.03;;
22131;SDS011;11232;51.748;19.390;2023-03-01T02:30:33;114.03;;;42.60;;
22131;SDS011;11232;51.748;19.390;2023-03-01T02:32:59;107.50;;;40.03;;
22131;SDS011;11232;51.748;19.390;2023-03-01T02:35:33;120.00;;;41.33;;
22131;SDS011;11232;51.748;19.390;2023-03-01T02:38:00;106.67;;;40.40;;
22131;SDS011;11232;51.748;19.390;2023-03-01T02:40:28;114.10;;;39.90;;
22131;SDS011;11232;51.748;19.390;2023-03-01T02:42:54;122.03;;;44.87;;
22131;SDS011;11232;51.748;19.390;2023-03-01T02:45:21;128.90;;;46.63;;
22131;SDS011;11232;51.748;19.390;2023-03-01T02:47:48;125.57;;;47.30;;
22131;SDS011;11232;51.748;19.390;2023-03-01T02:53:04;147.67;;;52.23;;
22131;SDS011;11232;51.748;19.390;2023-03-01T02:55:32;151.13;;;53.83;;
22131;SDS011;11232;51.748;19.390;2023-03-01T02:57:58;140.13;;;50.77;;
22131;SDS011;11232;51.748;19.390;2023-03-01T03:00:26;140.57;;;49.20;;
22131;SDS011;11232;51.748;19.390;2023-03-01T03:02:54;128.57;;;49.30;;
22131;SDS011;11232;51.748;19.390;2023-03-01T03:05:31;152.30;;;50.60;;
22131;SDS011;11232;51.748;19.390;2023-03-01T03:07:58;138.50;;;48.73;;
22131;SDS011;11232;51.748;19.390;2023-03-01T03:10:25;144.90;;;49.83;;
22131;SDS011;11232;51.748;19.390;2023-03-01T03:12:53;145.60;;;52.37;;
22131;SDS011;11232;51.748;19.390;2023-03-01T03:15:19;148.23;;;51.50;;
22131;SDS011;11232;51.748;19.390;2023-03-01T03:17:45;141.07;;;51.50;;
22131;SDS011;11232;51.748;19.390;2023-03-01T03:20:13;143.93;;;53.73;;
22131;SDS011;11232;51.748;19.390;2023-03-01T03:22:43;153.80;;;52.13;;
22131;SDS011;11232;51.748;19.390;2023-03-01T03:25:09;152.30;;;54.30;;
22131;SDS011;11232;51.748;19.390;2023-03-01T03:27:36;162.33;;;54.03;;
22131;SDS011;11232;51.748;19.390;2023-03-01T03:30:04;156.90;;;54.53;;
22131;SDS011;11232;51.748;19.390;2023-03-01T03:32:33;133.50;;;48.83;;
22131;SDS011;11232;51.748;19.390;2023-03-01T03:35:00;132.17;;;46.37;;
22131;SDS011;11232;51.748;19.390;2023-03-01T03:37:26;137.73;;;47.63;;
22131;SDS011;11232;51.748;19.390;2023-03-01T03:40:10;127.00;;;49.00;;
22131;SDS011;11232;51.748;19.390;2023-03-01T03:42:40;123.93;;;46.50;;
22131;SDS011;11232;51.748;19.390;2023-03-01T03:45:06;132.30;;;46.90;;
22131;SDS011;11232;51.748;19.390;2023-03-01T03:47:32;124.83;;;46.73;;
22131;SDS011;11232;51.748;19.390;2023-03-01T03:49:58;140.23;;;48.93;;
22131;SDS011;11232;51.748;19.390;2023-03-01T03:52:24;133.17;;;49.83;;
22131;SDS011;11232;51.748;19.390;2023-03-01T03:54:50;140.13;;;49.67;;
22131;SDS011;11232;51.748;19.390;2023-03-01T03:57:16;120.87;;;46.67;;
22131;SDS011;11232;51.748;19.390;2023-03-01T03:59:42;125.57;;;48.57;;
22131;SDS011;11232;51.748;19.390;2023-03-01T04:02:08;124.70;;;47.93;;
22131;SDS011;11232;51.748;19.390;2023-03-01T04:04:34;141.30;;;49.10;;
22131;SDS011;11232;51.748;19.390;2023-03-01T04:07:00;126.87;;;47.30;;
22131;SDS011;11232;51.748;19.390;2023-03-01T04:09:26;130.03;;;44.80;;
22131;SDS011;11232;51.748;19.390;2023-03-01T04:11:52;129.13;;;44.57;;
22131;SDS011;11232;51.748;19.390;2023-03-01T04:14:18;117.17;;;40.37;;
22131;SDS011;11232;51.748;19.390;2023-03-01T04:16:44;117.97;;;40.90;;
22131;SDS011;11232;51.748;19.390;2023-03-01T04:19:10;103.03;;;41.60;;
22131;SDS011;11232;51.748;19.390;2023-03-01T04:21:36;117.63;;;42.43;;
22131;SDS011;11232;51.748;19.390;2023-03-01T04:24:02;110.63;;;41.03;;
22131;SDS011;11232;51.748;19.390;2023-03-01T04:26:28;123.13;;;43.13;;
22131;SDS011;11232;51.748;19.390;2023-03-01T04:28:54;110.73;;;42.40;;
22131;SDS011;11232;51.748;19.390;2023-03-01T04:31:20;123.80;;;46.37;;
22131;SDS011;11232;51.748;19.390;2023-03-01T04:33:53;120.07;;;43.93;;
22131;SDS011;11232;51.748;19.390;2023-03-01T04:36:20;113.10;;;40.90;;
22131;SDS011;11232;51.748;19.390;2023-03-01T04:38:46;117.83;;;42.77;;
22131;SDS011;11232;51.748;19.390;2023-03-01T04:41:13;121.50;;;44.60;;
22131;SDS011;11232;51.748;19.390;2023-03-01T04:43:39;127.63;;;46.10;;
22131;SDS011;11232;51.748;19.390;2023-03-01T04:46:06;118.93;;;44.13;;
22131;SDS011;11232;51.748;19.390;2023-03-01T04:48:34;118.63;;;44.67;;
22131;SDS011;11232;51.748;19.390;2023-03-01T04:51:00;129.03;;;47.23;;
22131;SDS011;11232;51.748;19.390;2023-03-01T04:53:28;130.47;;;47.83;;
22131;SDS011;11232;51.748;19.390;2023-03-01T04:55:54;125.97;;;43.23;;
22131;SDS011;11232;51.748;19.390;2023-03-01T04:58:22;121.60;;;45.63;;
22131;SDS011;11232;51.748;19.390;2023-03-01T05:00:48;127.63;;;47.87;;
22131;SDS011;11232;51.748;19.390;2023-03-01T05:03:14;129.77;;;46.13;;
22131;SDS011;11232;51.748;19.390;2023-03-01T05:05:43;137.40;;;48.90;;
22131;SDS011;11232;51.748;19.390;2023-03-01T05:08:09;134.27;;;46.83;;
22131;SDS011;11232;51.748;19.390;2023-03-01T05:10:43;113.13;;;42.87;;
22131;SDS011;11232;51.748;19.390;2023-03-01T05:13:09;126.87;;;44.87;;
22131;SDS011;11232;51.748;19.390;2023-03-01T05:15:35;128.67;;;46.37;;
22131;SDS011;11232;51.748;19.390;2023-03-01T05:18:01;123.23;;;41.83;;
22131;SDS011;11232;51.748;19.390;2023-03-01T05:20:28;114.90;;;40.20;;
22131;SDS011;11232;51.748;19.390;2023-03-01T05:22:54;105.20;;;38.93;;
22131;SDS011;11232;51.748;19.390;2023-03-01T05:25:22;127.47;;;42.53;;
22131;SDS011;11232;51.748;19.390;2023-03-01T05:27:48;123.07;;;41.80;;
22131;SDS011;11232;51.748;19.390;2023-03-01T05:30:14;118.27;;;42.93;;
22131;SDS011;11232;51.748;19.390;2023-03-01T05:32:47;115.23;;;41.10;;
22131;SDS011;11232;51.748;19.390;2023-03-01T05:35:15;113.27;;;40.10;;
22131;SDS011;11232;51.748;19.390;2023-03-01T05:37:45;111.00;;;40.80;;
22131;SDS011;11232;51.748;19.390;2023-03-01T05:40:12;108.33;;;41.00;;
22131;SDS011;11232;51.748;19.390;2023-03-01T05:42:45;127.00;;;43.17;;
22131;SDS011;11232;51.748;19.390;2023-03-01T05:45:12;122.07;;;43.37;;
22131;SDS011;11232;51.748;19.390;2023-03-01T05:47:39;123.77;;;43.87;;
22131;SDS011;11232;51.748;19.390;2023-03-01T05:50:08;130.60;;;44.17;;
22131;SDS011;11232;51.748;19.390;2023-03-01T05:52:34;120.80;;;43.50;;
22131;SDS011;11232;51.748;19.390;2023-03-01T05:55:00;115.23;;;42.80;;
22131;SDS011;11232;51.748;19.390;2023-03-01T05:57:27;110.37;;;40.23;;
22131;SDS011;11232;51.748;19.390;2023-03-01T05:59:54;116.23;;;42.43;;
22131;SDS011;11232;51.748;19.390;2023-03-01T06:02:20;105.43;;;40.07;;
22131;SDS011;11232;51.748;19.390;2023-03-01T06:04:45;102.90;;;40.17;;
22131;SDS011;11232;51.748;19.390;2023-03-01T06:07:11;110.37;;;39.87;;
22131;SDS011;11232;51.748;19.390;2023-03-01T06:09:37;110.77;;;41.63;;
22131;SDS011;11232;51.748;19.390;2023-03-01T06:12:03;108.80;;;40.97;;
22131;SDS011;11232;51.748;19.390;2023-03-01T06:14:29;104.87;;;42.23;;
22131;SDS011;11232;51.748;19.390;2023-03-01T06:16:55;136.87;;;43.53;;
22131;SDS011;11232;51.748;19.390;2023-03-01T06:19:21;131.40;;;45.47;;
22131;SDS011;11232;51.748;19.390;2023-03-01T06:21:47;119.17;;;43.50;;
22131;SDS011;11232;51.748;19.390;2023-03-01T06:24:13;109.77;;;40.00;;
22131;SDS011;11232;51.748;19.390;2023-03-01T06:26:39;120.87;;;41.07;;
22131;SDS011;11232;51.748;19.390;2023-03-01T06:29:05;115.90;;;40.90;;
22131;SDS011;11232;51.748;19.390;2023-03-01T06:31:32;110.87;;;41.10;;
22131;SDS011;11232;51.748;19.390;2023-03-01T06:33:58;113.70;;;42.63;;
22131;SDS011;11232;51.748;19.390;2023-03-01T06:36:24;115.07;;;42.10;;
22131;SDS011;11232;51.748;19.390;2023-03-01T06:38:50;105.57;;;39.67;;
22131;SDS011;11232;51.748;19.390;2023-03-01T06:41:16;106.80;;;39.63;;
22131;SDS011;11232;51.748;19.390;2023-03-01T06:43:42;106.23;;;40.60;;
22131;SDS011;11232;51.748;19.390;2023-03-01T06:46:08;108.30;;;37.83;;
22131;SDS011;11232;51.748;19.390;2023-03-01T06:48:34;92.43;;;36.63;;
22131;SDS011;11232;51.748;19.390;2023-03-01T06:51:00;97.23;;;38.57;;
22131;SDS011;11232;51.748;19.390;2023-03-01T06:53:27;107.03;;;38.70;;
22131;SDS011;11232;51.748;19.390;2023-03-01T06:55:54;87.70;;;36.53;;
22131;SDS011;11232;51.748;19.390;2023-03-01T06:58:20;91.27;;;37.43;;
22131;SDS011;11232;51.748;19.390;2023-03-01T07:00:46;95.57;;;38.27;;
22131;SDS011;11232;51.748;19.390;2023-03-01T07:03:12;99.27;;;37.67;;
22131;SDS011;11232;51.748;19.390;2023-03-01T07:05:38;97.17;;;37.93;;
22131;SDS011;11232;51.748;19.390;2023-03-01T07:08:04;97.87;;;37.97;;
22131;SDS011;11232;51.748;19.390;2023-03-01T07:10:30;99.03;;;38.20;;
22131;SDS011;11232;51.748;19.390;2023-03-01T07:12:56;104.53;;;41.37;;
22131;SDS011;11232;51.748;19.390;2023-03-01T07:15:22;95.07;;;38.83;;
22131;SDS011;11232;51.748;19.390;2023-03-01T07:17:48;98.30;;;42.33;;
22131;SDS011;11232;51.748;19.390;2023-03-01T07:20:16;99.83;;;42.43;;
22131;SDS011;11232;51.748;19.390;2023-03-01T07:22:42;96.80;;;43.03;;
22131;SDS011;11232;51.748;19.390;2023-03-01T07:25:09;95.10;;;45.10;;
22131;SDS011;11232;51.748;19.390;2023-03-01T07:27:35;96.33;;;45.57;;
22131;SDS011;11232;51.748;19.390;2023-03-01T07:30:02;98.27;;;46.37;;
22131;SDS011;11232;51.748;19.390;2023-03-01T07:32:31;97.00;;;44.67;;
22131;SDS011;11232;51.748;19.390;2023-03-01T07:34:57;99.43;;;45.47;;
22131;SDS011;11232;51.748;19.390;2023-03-01T07:37:23;98.17;;;46.47;;
22131;SDS011;11232;51.748;19.390;2023-03-01T07:39:49;97.50;;;45.70;;
22131;SDS011;11232;51.748;19.390;2023-03-01T07:42:15;94.40;;;45.83;;
22131;SDS011;11232;51.748;19.390;2023-03-01T07:44:41;95.53;;;44.60;;
22131;SDS011;11232;51.748;19.390;2023-03-01T07:47:07;82.10;;;42.33;;
22131;SDS011;11232;51.748;19.390;2023-03-01T07:49:33;87.10;;;43.70;;
22131;SDS011;11232;51.748;19.390;2023-03-01T07:51:59;80.67;;;43.57;;
22131;SDS011;11232;51.748;19.390;2023-03-01T07:54:25;85.60;;;44.90;;
22131;SDS011;11232;51.748;19.390;2023-03-01T07:56:51;76.53;;;42.85;;
22131;SDS011;11232;51.748;19.390;2023-03-01T07:59:17;81.13;;;43.47;;
22131;SDS011;11232;51.748;19.390;2023-03-01T08:01:43;81.40;;;44.17;;
22131;SDS011;11232;51.748;19.390;2023-03-01T08:04:09;77.53;;;43.60;;
22131;SDS011;11232;51.748;19.390;2023-03-01T08:06:35;75.10;;;43.70;;
22131;SDS011;11232;51.748;19.390;2023-03-01T08:09:02;74.70;;;40.88;;
22131;SDS011;11232;51.748;19.390;2023-03-01T08:11:28;73.22;;;42.42;;
22131;SDS011;11232;51.748;19.390;2023-03-01T08:13:54;70.57;;;43.05;;
22131;SDS011;11232;51.748;19.390;2023-03-01T08:16:21;71.50;;;41.08;;
22131;SDS011;11232;51.748;19.390;2023-03-01T08:18:47;66.82;;;39.78;;
22131;SDS011;11232;51.748;19.390;2023-03-01T08:21:16;62.17;;;38.97;;
22131;SDS011;11232;51.748;19.390;2023-03-01T08:23:43;58.08;;;37.58;;
22131;SDS011;11232;51.748;19.390;2023-03-01T08:26:10;59.47;;;37.50;;
22131;SDS011;11232;51.748;19.390;2023-03-01T08:28:37;55.40;;;35.63;;
22131;SDS011;11232;51.748;19.390;2023-03-01T08:31:04;62.33;;;39.45;;
22131;SDS011;11232;51.748;19.390;2023-03-01T08:33:38;60.67;;;41.30;;
22131;SDS011;11232;51.748;19.390;2023-03-01T08:36:05;56.92;;;37.15;;
22131;SDS011;11232;51.748;19.390;2023-03-01T08:38:31;51.75;;;34.35;;
22131;SDS011;11232;51.748;19.390;2023-03-01T08:41:01;46.22;;;29.58;;
22131;SDS011;11232;51.748;19.390;2023-03-01T08:43:27;44.35;;;29.95;;
22131;SDS011;11232;51.748;19.390;2023-03-01T08:45:53;45.83;;;28.67;;
22131;SDS011;11232;51.748;19.390;2023-03-01T08:48:19;42.15;;;27.17;;
22131;SDS011;11232;51.748;19.390;2023-03-01T08:50:45;44.00;;;27.63;;
22131;SDS011;11232;51.748;19.390;2023-03-01T08:53:11;48.60;;;30.60;;
22131;SDS011;11232;51.748;19.390;2023-03-01T08:55:37;47.05;;;29.42;;
22131;SDS011;11232;51.748;19.390;2023-03-01T08:58:03;41.70;;;28.30;;
22131;SDS011;11232;51.748;19.390;2023-03-01T09:00:29;43.78;;;28.77;;
22131;SDS011;11232;51.748;19.390;2023-03-01T09:02:55;40.45;;;26.98;;
22131;SDS011;11232;51.748;19.390;2023-03-01T09:05:21;41.53;;;27.05;;
22131;SDS011;11232;51.748;19.390;2023-03-01T09:07:47;46.05;;;28.65;;
22131;SDS011;11232;51.748;19.390;2023-03-01T09:10:13;41.03;;;26.60;;
22131;SDS011;11232;51.748;19.390;2023-03-01T09:12:39;36.78;;;24.48;;
22131;SDS011;11232;51.748;19.390;2023-03-01T09:15:05;37.70;;;24.15;;
22131;SDS011;11232;51.748;19.390;2023-03-01T09:17:31;34.08;;;23.67;;
22131;SDS011;11232;51.748;19.390;2023-03-01T09:19:57;34.38;;;22.35;;
22131;SDS011;11232;51.748;19.390;2023-03-01T09:22:24;29.65;;;20.52;;
22131;SDS011;11232;51.748;19.390;2023-03-01T09:24:50;37.63;;;23.38;;
22131;SDS011;11232;51.748;19.390;2023-03-01T09:27:16;31.63;;;22.10;;
22131;SDS011;11232;51.748;19.390;2023-03-01T09:29:44;32.10;;;21.88;;
22131;SDS011;11232;51.748;19.390;2023-03-01T09:32:10;30.92;;;20.65;;
22131;SDS011;11232;51.748;19.390;2023-03-01T09:34:36;32.88;;;21.50;;
22131;SDS011;11232;51.748;19.390;2023-03-01T09:37:20;29.60;;;21.20;;
22131;SDS011;11232;51.748;19.390;2023-03-01T09:39:46;33.70;;;22.58;;
22131;SDS011;11232;51.748;19.390;2023-03-01T09:42:12;33.58;;;22.27;;
22131;SDS011;11232;51.748;19.390;2023-03-01T09:47:16;31.00;;;22.58;;
22131;SDS011;11232;51.748;19.390;2023-03-01T09:49:43;32.60;;;21.15;;
22131;SDS011;11232;51.748;19.390;2023-03-01T09:54:59;29.65;;;20.77;;
22131;SDS011;11232;51.748;19.390;2023-03-01T10:00:19;31.35;;;21.00;;
22131;SDS011;11232;51.748;19.390;2023-03-01T10:02:49;32.78;;;21.65;;
22131;SDS011;11232;51.748;19.390;2023-03-01T10:05:38;28.15;;;20.15;;
22131;SDS011;11232;51.748;19.390;2023-03-01T10:10:37;29.63;;;20.13;;
22131;SDS011;11232;51.748;19.390;2023-03-01T10:13:15;32.65;;;19.98;;
22131;SDS011;11232;51.748;19.390;2023-03-01T10:15:44;30.83;;;20.58;;
22131;SDS011;11232;51.748;19.390;2023-03-01T10:18:12;34.60;;;22.70;;
22131;SDS011;11232;51.748;19.390;2023-03-01T10:20:48;33.53;;;22.05;;
22131;SDS011;11232;51.748;19.390;2023-03-01T10:23:16;34.05;;;22.50;;
22131;SDS011;11232;51.748;19.390;2023-03-01T10:30:40;29.75;;;18.92;;
22131;SDS011;11232;51.748;19.390;2023-03-01T10:36:07;24.10;;;16.17;;
22131;SDS011;11232;51.748;19.390;2023-03-01T10:38:46;29.95;;;17.80;;
22131;SDS011;11232;51.748;19.390;2023-03-01T10:41:13;24.40;;;16.02;;
22131;SDS011;11232;51.748;19.390;2023-03-01T10:43:49;35.30;;;17.83;;
22131;SDS011;11232;51.748;19.390;2023-03-01T10:46:29;25.88;;;16.92;;
22131;SDS011;11232;51.748;19.390;2023-03-01T10:49:13;27.25;;;18.40;;
22131;SDS011;11232;51.748;19.390;2023-03-01T10:51:40;26.33;;;18.20;;
22131;SDS011;11232;51.748;19.390;2023-03-01T10:54:22;29.65;;;18.65;;
22131;SDS011;11232;51.748;19.390;2023-03-01T10:56:52;21.08;;;14.75;;
22131;SDS011;11232;51.748;19.390;2023-03-01T10:59:40;19.92;;;12.23;;
22131;SDS011;11232;51.748;19.390;2023-03-01T11:02:16;19.23;;;12.57;;
22131;SDS011;11232;51.748;19.390;2023-03-01T11:07:23;18.27;;;11.65;;
22131;SDS011;11232;51.748;19.390;2023-03-01T11:09:49;15.55;;;9.93;;
22131;SDS011;11232;51.748;19.390;2023-03-01T11:12:15;14.82;;;10.15;;
22131;SDS011;11232;51.748;19.390;2023-03-01T11:14:46;18.77;;;10.85;;
22131;SDS011;11232;51.748;19.390;2023-03-01T11:22:44;16.52;;;11.95;;
22131;SDS011;11232;51.748;19.390;2023-03-01T11:25:12;20.10;;;13.40;;
22131;SDS011;11232;51.748;19.390;2023-03-01T11:27:40;22.38;;;14.52;;
22131;SDS011;11232;51.748;19.390;2023-03-01T11:30:13;24.30;;;16.08;;
22131;SDS011;11232;51.748;19.390;2023-03-01T11:33:29;25.63;;;16.80;;
22131;SDS011;11232;51.748;19.390;2023-03-01T11:35:27;20.27;;;13.35;;
22131;SDS011;11232;51.748;19.390;2023-03-01T11:43:09;17.20;;;11.05;;
22131;SDS011;11232;51.748;19.390;2023-03-01T11:48:28;16.83;;;10.88;;
22131;SDS011;11232;51.748;19.390;2023-03-01T11:50:56;18.95;;;12.85;;
22131;SDS011;11232;51.748;19.390;2023-03-01T11:54:06;21.05;;;13.30;;
22131;SDS011;11232;51.748;19.390;2023-03-01T12:17:15;28.10;;;17.90;;
22131;SDS011;11232;51.748;19.390;2023-03-01T12:22:27;26.50;;;16.25;;
22131;SDS011;11232;51.748;19.390;2023-03-01T12:25:11;18.85;;;12.52;;
22131;SDS011;11232;51.748;19.390;2023-03-01T12:40:58;20.20;;;12.70;;
22131;SDS011;11232;51.748;19.390;2023-03-01T12:51:34;26.55;;;16.25;;
22131;SDS011;11232;51.748;19.390;2023-03-01T12:54:11;29.00;;;17.65;;
22131;SDS011;11232;51.748;19.390;2023-03-01T12:56:40;26.70;;;17.25;;
22131;SDS011;11232;51.748;19.390;2023-03-01T13:01:46;27.83;;;17.02;;
22131;SDS011;11232;51.748;19.390;2023-03-01T13:04:16;26.20;;;16.00;;
22131;SDS011;11232;51.748;19.390;2023-03-01T13:06:46;25.55;;;15.35;;
22131;SDS011;11232;51.748;19.390;2023-03-01T13:11:41;31.52;;;18.00;;
22131;SDS011;11232;51.748;19.390;2023-03-01T13:16:47;36.30;;;20.92;;
22131;SDS011;11232;51.748;19.390;2023-03-01T13:21:49;33.83;;;18.63;;
22131;SDS011;11232;51.748;19.390;2023-03-01T13:24:49;30.45;;;17.80;;
22131;SDS011;11232;51.748;19.390;2023-03-01T13:27:21;28.65;;;16.58;;
22131;SDS011;11232;51.748;19.390;2023-03-01T13:29:57;28.42;;;17.48;;
22131;SDS011;11232;51.748;19.390;2023-03-01T13:32:31;29.08;;;17.60;;
22131;SDS011;11232;51.748;19.390;2023-03-01T13:37:42;31.33;;;18.60;;
22131;SDS011;11232;51.748;19.390;2023-03-01T13:42:45;37.67;;;19.85;;
22131;SDS011;11232;51.748;19.390;2023-03-01T13:45:21;34.33;;;18.58;;
22131;SDS011;11232;51.748;19.390;2023-03-01T13:47:53;34.33;;;19.40;;
22131;SDS011;11232;51.748;19.390;2023-03-01T13:50:30;29.80;;;17.73;;
22131;SDS011;11232;51.748;19.390;2023-03-01T13:52:59;30.40;;;17.70;;
22131;SDS011;11232;51.748;19.390;2023-03-01T13:55:37;31.23;;;17.17;;
22131;SDS011;11232;51.748;19.390;2023-03-01T13:58:14;31.20;;;17.98;;
22131;SDS011;11232;51.748;19.390;2023-03-01T14:00:41;29.05;;;17.33;;
22131;SDS011;11232;51.748;19.390;2023-03-01T14:05:33;30.05;;;16.42;;
22131;SDS011;11232;51.748;19.390;2023-03-01T14:08:01;32.80;;;16.67;;
22131;SDS011;11232;51.748;19.390;2023-03-01T14:10:28;30.17;;;17.83;;
22131;SDS011;11232;51.748;19.390;2023-03-01T14:13:01;38.15;;;18.98;;
22131;SDS011;11232;51.748;19.390;2023-03-01T14:15:33;38.53;;;19.27;;
22131;SDS011;11232;51.748;19.390;2023-03-01T14:20:46;31.20;;;17.58;;
22131;SDS011;11232;51.748;19.390;2023-03-01T14:23:17;37.28;;;18.13;;
22131;SDS011;11232;51.748;19.390;2023-03-01T14:25:51;34.92;;;18.27;;
22131;SDS011;11232;51.748;19.390;2023-03-01T14:28:18;29.02;;;14.23;;
22131;SDS011;11232;51.748;19.390;2023-03-01T14:30:49;24.55;;;12.73;;
22131;SDS011;11232;51.748;19.390;2023-03-01T14:33:26;21.30;;;11.73;;
22131;SDS011;11232;51.748;19.390;2023-03-01T14:36:11;22.08;;;11.55;;
22131;SDS011;11232;51.748;19.390;2023-03-01T14:38:38;23.15;;;12.50;;
22131;SDS011;11232;51.748;19.390;2023-03-01T14:41:06;22.42;;;11.55;;
22131;SDS011;11232;51.748;19.390;2023-03-01T14:43:33;25.73;;;12.07;;
22131;SDS011;11232;51.748;19.390;2023-03-01T14:45:59;19.48;;;10.85;;
22131;SDS011;11232;51.748;19.390;2023-03-01T14:48:26;18.67;;;10.27;;
22131;SDS011;11232;51.748;19.390;2023-03-01T14:50:53;22.92;;;10.70;;
22131;SDS011;11232;51.748;19.390;2023-03-01T14:53:26;19.33;;;10.00;;
22131;SDS011;11232;51.748;19.390;2023-03-01T14:55:54;26.50;;;10.50;;
22131;SDS011;11232;51.748;19.390;2023-03-01T14:58:22;20.70;;;10.30;;
22131;SDS011;11232;51.748;19.390;2023-03-01T15:00:59;22.05;;;10.45;;
22131;SDS011;11232;51.748;19.390;2023-03-01T15:03:36;21.80;;;10.43;;
22131;SDS011;11232;51.748;19.390;2023-03-01T15:06:03;24.65;;;11.90;;
22131;SDS011;11232;51.748;19.390;2023-03-01T15:08:29;19.13;;;10.63;;
22131;SDS011;11232;51.748;19.390;2023-03-01T15:13:32;24.43;;;11.50;;
22131;SDS011;11232;51.748;19.390;2023-03-01T15:16:05;23.77;;;11.33;;
22131;SDS011;11232;51.748;19.390;2023-03-01T15:18:32;22.00;;;10.43;;
22131;SDS011;11232;51.748;19.390;2023-03-01T15:21:06;23.63;;;10.40;;
22131;SDS011;11232;51.748;19.390;2023-03-01T15:23:32;19.97;;;10.80;;
22131;SDS011;11232;51.748;19.390;2023-03-01T15:25:59;23.87;;;11.03;;
22131;SDS011;11232;51.748;19.390;2023-03-01T15:28:37;25.20;;;10.87;;
22131;SDS011;11232;51.748;19.390;2023-03-01T15:31:13;23.60;;;11.17;;
22131;SDS011;11232;51.748;19.390;2023-03-01T15:33:42;24.90;;;11.70;;
22131;SDS011;11232;51.748;19.390;2023-03-01T15:36:36;22.83;;;11.60;;
22131;SDS011;11232;51.748;19.390;2023-03-01T15:39:04;24.93;;;11.63;;
22131;SDS011;11232;51.748;19.390;2023-03-01T15:41:52;25.83;;;11.43;;
22131;SDS011;11232;51.748;19.390;2023-03-01T15:44:23;26.57;;;11.77;;
22131;SDS011;11232;51.748;19.390;2023-03-01T15:46:50;25.07;;;11.87;;
22131;SDS011;11232;51.748;19.390;2023-03-01T15:52:01;28.77;;;12.43;;
22131;SDS011;11232;51.748;19.390;2023-03-01T15:54:27;31.13;;;13.70;;
22131;SDS011;11232;51.748;19.390;2023-03-01T15:56:54;34.13;;;13.97;;
22131;SDS011;11232;51.748;19.390;2023-03-01T15:59:20;37.37;;;13.10;;
22131;SDS011;11232;51.748;19.390;2023-03-01T16:01:47;39.37;;;14.43;;
22131;SDS011;11232;51.748;19.390;2023-03-01T16:04:14;31.07;;;13.83;;